sensor_id;sensor_type;location;lat;lon;timestamp;pressure;altitude;pressure_sealevel;temperature;humidity
80248;BME280;69560;52.206;21.018;2023-05-07T00:01:34;100783.71;;;8.63;60.29
80248;BME280;69560;52.206;21.018;2023-05-07T00:04:03;100781.96;;;8.62;60.60
80248;BME280;69560;52.206;21.018;2023-05-07T00:06:31;100784.83;;;8.63;60.33
80248;BME280;69560;52.206;21.018;2023-05-07T00:08:58;100782.66;;;8.64;60.25
80248;BME280;69560;52.206;21.018;2023-05-07T00:11:27;100778.23;;;8.64;60.21
80248;BME280;69560;52.206;21.018;2023-05-07T00:13:53;100777.27;;;8.63;60.26
80248;BME280;69560;52.206;21.018;2023-05-07T00:16:20;100777.31;;;8.62;60.10
80248;BME280;69560;52.206;21.018;2023-05-07T00:18:47;100780.39;;;8.60;60.40
80248;BME280;69560;52.206;21.018;2023-05-07T00:21:14;100778.80;;;8.60;60.44
80248;BME280;69560;52.206;21.018;2023-05-07T00:23:41;100782.95;;;8.59;60.43
80248;BME280;69560;52.206;21.018;2023-05-07T00:26:07;100781.81;;;8.58;60.36
80248;BME280;69560;52.206;21.018;2023-05-07T00:28:37;100786.46;;;8.58;60.54
80248;BME280;69560;52.206;21.018;2023-05-07T00:31:11;100789.38;;;8.59;60.22
80248;BME280;69560;52.206;21.018;2023-05-07T00:33:38;100791.42;;;8.64;60.40
80248;BME280;69560;52.206;21.018;2023-05-07T00:36:06;100790.52;;;8.65;60.39
80248;BME280;69560;52.206;21.018;2023-05-07T00:38:32;100794.52;;;8.66;60.35
80248;BME280;69560;52.206;21.018;2023-05-07T00:40:59;100795.27;;;8.65;60.55
80248;BME280;69560;52.206;21.018;2023-05-07T00:43:26;100793.36;;;8.65;60.60
80248;BME280;69560;52.206;21.018;2023-05-07T00:45:54;100796.92;;;8.61;60.37
80248;BME280;69560;52.206;21.018;2023-05-07T00:48:21;100800.74;;;8.55;60.26
80248;BME280;69560;52.206;21.018;2023-05-07T00:50:50;100801.19;;;8.50;60.46
80248;BME280;69560;52.206;21.018;2023-05-07T00:53:17;100803.95;;;8.48;60.44
80248;BME280;69560;52.206;21.018;2023-05-07T00:55:44;100806.30;;;8.49;60.33
80248;BME280;69560;52.206;21.018;2023-05-07T00:58:11;100808.95;;;8.50;60.49
80248;BME280;69560;52.206;21.018;2023-05-07T01:00:38;100809.54;;;8.54;60.44
80248;BME280;69560;52.206;21.018;2023-05-07T01:03:05;100810.70;;;8.55;60.79
80248;BME280;69560;52.206;21.018;2023-05-07T01:05:32;100810.73;;;8.56;60.81
80248;BME280;69560;52.206;21.018;2023-05-07T01:07:59;100812.70;;;8.56;60.80
80248;BME280;69560;52.206;21.018;2023-05-07T01:10:26;100816.19;;;8.56;60.73
80248;BME280;69560;52.206;21.018;2023-05-07T01:12:57;100817.98;;;8.56;60.56
80248;BME280;69560;52.206;21.018;2023-05-07T01:15:25;100814.73;;;8.51;60.69
80248;BME280;69560;52.206;21.018;2023-05-07T01:17:53;100813.80;;;8.47;60.56
80248;BME280;69560;52.206;21.018;2023-05-07T01:20:19;100812.41;;;8.46;60.67
80248;BME280;69560;52.206;21.018;2023-05-07T01:22:46;100811.76;;;8.47;60.66
80248;BME280;69560;52.206;21.018;2023-05-07T01:25:34;100812.83;;;8.50;60.83
80248;BME280;69560;52.206;21.018;2023-05-07T01:28:03;100811.85;;;8.54;60.78
80248;BME280;69560;52.206;21.018;2023-05-07T01:30:34;100812.82;;;8.57;60.89
80248;BME280;69560;52.206;21.018;2023-05-07T01:33:06;100813.30;;;8.59;61.12
80248;BME280;69560;52.206;21.018;2023-05-07T01:35:41;100817.26;;;8.60;60.75
80248;BME280;69560;52.206;21.018;2023-05-07T01:38:08;100820.13;;;8.60;61.02
80248;BME280;69560;52.206;21.018;2023-05-07T01:40:36;100821.46;;;8.60;60.84
80248;BME280;69560;52.206;21.018;2023-05-07T01:43:06;100819.79;;;8.57;61.04
80248;BME280;69560;52.206;21.018;2023-05-07T01:45:35;100822.20;;;8.56;60.77
80248;BME280;69560;52.206;21.018;2023-05-07T01:48:11;100819.02;;;8.58;60.78
80248;BME280;69560;52.206;21.018;2023-05-07T01:50:39;100817.70;;;8.61;60.89
80248;BME280;69560;52.206;21.018;2023-05-07T01:53:06;100822.27;;;8.63;60.77
80248;BME280;69560;52.206;21.018;2023-05-07T01:55:33;100820.31;;;8.63;60.69
80248;BME280;69560;52.206;21.018;2023-05-07T01:57:59;100817.63;;;8.63;60.44
80248;BME280;69560;52.206;21.018;2023-05-07T02:00:26;100817.98;;;8.62;60.66
80248;BME280;69560;52.206;21.018;2023-05-07T02:02:53;100814.44;;;8.62;60.89
80248;BME280;69560;52.206;21.018;2023-05-07T02:05:20;100814.33;;;8.59;60.87
80248;BME280;69560;52.206;21.018;2023-05-07T02:07:47;100810.84;;;8.57;60.63
80248;BME280;69560;52.206;21.018;2023-05-07T02:10:14;100811.98;;;8.56;60.78
80248;BME280;69560;52.206;21.018;2023-05-07T02:12:40;100813.48;;;8.57;60.88
80248;BME280;69560;52.206;21.018;2023-05-07T02:15:07;100813.67;;;8.61;60.72
80248;BME280;69560;52.206;21.018;2023-05-07T02:17:34;100816.13;;;8.63;60.97
80248;BME280;69560;52.206;21.018;2023-05-07T02:20:02;100814.26;;;8.64;60.83
80248;BME280;69560;52.206;21.018;2023-05-07T02:22:31;100811.02;;;8.63;60.74
80248;BME280;69560;52.206;21.018;2023-05-07T02:25:01;100815.34;;;8.63;60.99
80248;BME280;69560;52.206;21.018;2023-05-07T02:27:27;100817.36;;;8.62;60.87
80248;BME280;69560;52.206;21.018;2023-05-07T02:29:54;100820.74;;;8.62;60.68
80248;BME280;69560;52.206;21.018;2023-05-07T02:32:21;100819.30;;;8.61;61.06
80248;BME280;69560;52.206;21.018;2023-05-07T02:34:50;100820.27;;;8.60;60.96
80248;BME280;69560;52.206;21.018;2023-05-07T02:37:17;100821.13;;;8.59;60.96
80248;BME280;69560;52.206;21.018;2023-05-07T02:39:44;100820.80;;;8.61;61.06
80248;BME280;69560;52.206;21.018;2023-05-07T02:42:10;100825.16;;;8.64;60.80
80248;BME280;69560;52.206;21.018;2023-05-07T02:44:39;100818.80;;;8.67;60.98
80248;BME280;69560;52.206;21.018;2023-05-07T02:47:06;100819.55;;;8.70;61.10
80248;BME280;69560;52.206;21.018;2023-05-07T02:49:35;100824.77;;;8.73;61.17
80248;BME280;69560;52.206;21.018;2023-05-07T02:52:01;100823.59;;;8.73;60.63
80248;BME280;69560;52.206;21.018;2023-05-07T02:54:28;100829.05;;;8.71;60.92
80248;BME280;69560;52.206;21.018;2023-05-07T02:56:54;100833.40;;;8.68;61.09
80248;BME280;69560;52.206;21.018;2023-05-07T02:59:24;100833.49;;;8.67;60.94
80248;BME280;69560;52.206;21.018;2023-05-07T03:01:52;100837.01;;;8.63;60.78
80248;BME280;69560;52.206;21.018;2023-05-07T03:04:19;100837.56;;;8.62;60.90
80248;BME280;69560;52.206;21.018;2023-05-07T03:06:47;100840.30;;;8.63;60.91
80248;BME280;69560;52.206;21.018;2023-05-07T03:09:13;100840.40;;;8.65;60.84
80248;BME280;69560;52.206;21.018;2023-05-07T03:11:40;100841.48;;;8.67;60.92
80248;BME280;69560;52.206;21.018;2023-05-07T03:14:07;100839.60;;;8.67;60.79
80248;BME280;69560;52.206;21.018;2023-05-07T03:16:34;100841.50;;;8.65;60.68
80248;BME280;69560;52.206;21.018;2023-05-07T03:19:00;100845.14;;;8.63;60.60
80248;BME280;69560;52.206;21.018;2023-05-07T03:21:34;100841.90;;;8.60;60.77
80248;BME280;69560;52.206;21.018;2023-05-07T03:24:01;100842.83;;;8.56;60.67
80248;BME280;69560;52.206;21.018;2023-05-07T03:26:28;100850.23;;;8.54;60.87
80248;BME280;69560;52.206;21.018;2023-05-07T03:28:55;100849.30;;;8.52;60.96
80248;BME280;69560;52.206;21.018;2023-05-07T03:31:25;100857.16;;;8.53;60.83
80248;BME280;69560;52.206;21.018;2023-05-07T03:33:53;100859.45;;;8.55;61.13
80248;BME280;69560;52.206;21.018;2023-05-07T03:36:20;100862.44;;;8.57;61.27
80248;BME280;69560;52.206;21.018;2023-05-07T03:38:48;100862.81;;;8.58;61.02
80248;BME280;69560;52.206;21.018;2023-05-07T03:41:24;100866.58;;;8.60;61.11
80248;BME280;69560;52.206;21.018;2023-05-07T03:43:52;100874.23;;;8.62;61.08
80248;BME280;69560;52.206;21.018;2023-05-07T03:46:19;100877.73;;;8.60;61.08
80248;BME280;69560;52.206;21.018;2023-05-07T03:48:46;100877.95;;;8.60;60.98
80248;BME280;69560;52.206;21.018;2023-05-07T03:51:12;100879.23;;;8.58;60.93
80248;BME280;69560;52.206;21.018;2023-05-07T03:53:39;100881.11;;;8.57;61.08
80248;BME280;69560;52.206;21.018;2023-05-07T03:56:06;100882.52;;;8.55;61.15
80248;BME280;69560;52.206;21.018;2023-05-07T03:58:32;100882.02;;;8.54;61.04
80248;BME280;69560;52.206;21.018;2023-05-07T04:00:59;100881.64;;;8.55;61.05
80248;BME280;69560;52.206;21.018;2023-05-07T04:03:26;100883.13;;;8.57;61.11
80248;BME280;69560;52.206;21.018;2023-05-07T04:05:53;100882.46;;;8.58;61.42
80248;BME280;69560;52.206;21.018;2023-05-07T04:08:20;100883.70;;;8.59;61.35
80248;BME280;69560;52.206;21.018;2023-05-07T04:10:46;100888.63;;;8.58;61.16
80248;BME280;69560;52.206;21.018;2023-05-07T04:13:13;100893.08;;;8.57;61.25
80248;BME280;69560;52.206;21.018;2023-05-07T04:15:40;100900.02;;;8.54;61.48
80248;BME280;69560;52.206;21.018;2023-05-07T04:18:06;100902.11;;;8.51;61.09
80248;BME280;69560;52.206;21.018;2023-05-07T04:20:34;100905.95;;;8.44;61.11
80248;BME280;69560;52.206;21.018;2023-05-07T04:23:02;100905.48;;;8.40;61.08
80248;BME280;69560;52.206;21.018;2023-05-07T04:25:29;100903.65;;;8.40;61.18
80248;BME280;69560;52.206;21.018;2023-05-07T04:27:57;100904.85;;;8.40;61.32
80248;BME280;69560;52.206;21.018;2023-05-07T04:30:24;100908.02;;;8.44;61.38
80248;BME280;69560;52.206;21.018;2023-05-07T04:32:50;100915.50;;;8.48;61.42
80248;BME280;69560;52.206;21.018;2023-05-07T04:35:17;100921.20;;;8.51;61.46
80248;BME280;69560;52.206;21.018;2023-05-07T04:37:44;100918.68;;;8.53;61.73
80248;BME280;69560;52.206;21.018;2023-05-07T04:40:11;100920.00;;;8.54;61.38
80248;BME280;69560;52.206;21.018;2023-05-07T04:42:38;100917.27;;;8.55;61.22
80248;BME280;69560;52.206;21.018;2023-05-07T04:45:05;100918.92;;;8.55;61.61
80248;BME280;69560;52.206;21.018;2023-05-07T04:47:32;100921.94;;;8.57;61.59
80248;BME280;69560;52.206;21.018;2023-05-07T04:50:18;100926.45;;;8.59;61.60
80248;BME280;69560;52.206;21.018;2023-05-07T04:52:46;100930.63;;;8.63;61.62
80248;BME280;69560;52.206;21.018;2023-05-07T04:55:13;100931.89;;;8.68;61.67
80248;BME280;69560;52.206;21.018;2023-05-07T04:57:39;100930.79;;;8.72;61.37
80248;BME280;69560;52.206;21.018;2023-05-07T05:00:10;100934.75;;;8.77;61.52
80248;BME280;69560;52.206;21.018;2023-05-07T05:02:37;100937.14;;;8.79;61.57
80248;BME280;69560;52.206;21.018;2023-05-07T05:05:05;100936.87;;;8.81;61.34
80248;BME280;69560;52.206;21.018;2023-05-07T05:07:32;100944.02;;;8.81;61.45
80248;BME280;69560;52.206;21.018;2023-05-07T05:09:59;100947.04;;;8.82;61.51
80248;BME280;69560;52.206;21.018;2023-05-07T05:12:25;100948.09;;;8.83;61.46
80248;BME280;69560;52.206;21.018;2023-05-07T05:14:52;100949.29;;;8.85;61.55
80248;BME280;69560;52.206;21.018;2023-05-07T05:17:19;100947.69;;;8.86;61.59
80248;BME280;69560;52.206;21.018;2023-05-07T05:19:46;100952.77;;;8.89;61.36
80248;BME280;69560;52.206;21.018;2023-05-07T05:22:13;100954.35;;;8.95;60.99
80248;BME280;69560;52.206;21.018;2023-05-07T05:24:40;100955.35;;;8.99;61.01
80248;BME280;69560;52.206;21.018;2023-05-07T05:27:06;100957.18;;;9.04;61.14
80248;BME280;69560;52.206;21.018;2023-05-07T05:29:33;100961.09;;;9.07;61.29
80248;BME280;69560;52.206;21.018;2023-05-07T05:32:02;100965.54;;;9.09;61.44
80248;BME280;69560;52.206;21.018;2023-05-07T05:34:29;100956.41;;;9.11;61.26
80248;BME280;69560;52.206;21.018;2023-05-07T05:37:05;100961.91;;;9.14;61.46
80248;BME280;69560;52.206;21.018;2023-05-07T05:39:32;100962.45;;;9.16;61.21
80248;BME280;69560;52.206;21.018;2023-05-07T05:41:59;100962.08;;;9.17;61.09
80248;BME280;69560;52.206;21.018;2023-05-07T05:44:26;100964.08;;;9.15;61.29
80248;BME280;69560;52.206;21.018;2023-05-07T05:46:52;100969.70;;;9.17;61.18
80248;BME280;69560;52.206;21.018;2023-05-07T05:49:21;100972.52;;;9.21;61.19
80248;BME280;69560;52.206;21.018;2023-05-07T05:51:48;100974.02;;;9.28;61.04
80248;BME280;69560;52.206;21.018;2023-05-07T05:54:15;100972.10;;;9.33;60.97
80248;BME280;69560;52.206;21.018;2023-05-07T05:56:41;100975.27;;;9.38;61.33
80248;BME280;69560;52.206;21.018;2023-05-07T05:59:08;100976.59;;;9.39;60.77
80248;BME280;69560;52.206;21.018;2023-05-07T06:01:35;100981.84;;;9.38;60.77
80248;BME280;69560;52.206;21.018;2023-05-07T06:04:02;100986.42;;;9.35;60.74
80248;BME280;69560;52.206;21.018;2023-05-07T06:06:28;100983.95;;;9.31;60.35
80248;BME280;69560;52.206;21.018;2023-05-07T06:08:55;100986.86;;;9.26;60.52
80248;BME280;69560;52.206;21.018;2023-05-07T06:11:21;100986.91;;;9.18;60.14
80248;BME280;69560;52.206;21.018;2023-05-07T06:13:48;100994.67;;;9.10;60.01
80248;BME280;69560;52.206;21.018;2023-05-07T06:16:14;100994.52;;;9.09;60.57
80248;BME280;69560;52.206;21.018;2023-05-07T06:18:41;100996.87;;;9.08;60.27
80248;BME280;69560;52.206;21.018;2023-05-07T06:21:09;100992.14;;;9.13;60.46
80248;BME280;69560;52.206;21.018;2023-05-07T06:23:36;100996.98;;;9.17;60.58
80248;BME280;69560;52.206;21.018;2023-05-07T06:26:03;100998.85;;;9.19;60.39
80248;BME280;69560;52.206;21.018;2023-05-07T06:28:29;100998.79;;;9.23;60.71
80248;BME280;69560;52.206;21.018;2023-05-07T06:31:18;100999.95;;;9.29;60.85
80248;BME280;69560;52.206;21.018;2023-05-07T06:33:49;101002.04;;;9.35;60.90
80248;BME280;69560;52.206;21.018;2023-05-07T06:36:16;100999.27;;;9.37;60.55
80248;BME280;69560;52.206;21.018;2023-05-07T06:38:42;101007.17;;;9.37;60.64
80248;BME280;69560;52.206;21.018;2023-05-07T06:41:09;101002.79;;;9.38;60.44
80248;BME280;69560;52.206;21.018;2023-05-07T06:43:36;101005.12;;;9.39;60.17
80248;BME280;69560;52.206;21.018;2023-05-07T06:46:02;101002.80;;;9.42;60.51
80248;BME280;69560;52.206;21.018;2023-05-07T06:48:29;101000.05;;;9.49;60.56
80248;BME280;69560;52.206;21.018;2023-05-07T06:50:55;101005.11;;;9.58;60.40
80248;BME280;69560;52.206;21.018;2023-05-07T06:53:24;101003.13;;;9.68;60.60
80248;BME280;69560;52.206;21.018;2023-05-07T06:55:50;101009.42;;;9.76;60.38
80248;BME280;69560;52.206;21.018;2023-05-07T06:58:18;101015.60;;;9.80;60.22
80248;BME280;69560;52.206;21.018;2023-05-07T07:00:44;101015.17;;;9.81;60.22
80248;BME280;69560;52.206;21.018;2023-05-07T07:03:12;101020.58;;;9.84;59.87
80248;BME280;69560;52.206;21.018;2023-05-07T07:05:40;101020.67;;;9.87;59.81
80248;BME280;69560;52.206;21.018;2023-05-07T07:08:07;101025.02;;;9.92;59.99
80248;BME280;69560;52.206;21.018;2023-05-07T07:10:34;101026.78;;;9.97;60.07
80248;BME280;69560;52.206;21.018;2023-05-07T07:13:01;101025.28;;;10.02;59.99
80248;BME280;69560;52.206;21.018;2023-05-07T07:15:27;101028.85;;;10.06;60.22
80248;BME280;69560;52.206;21.018;2023-05-07T07:17:54;101030.77;;;10.09;59.66
80248;BME280;69560;52.206;21.018;2023-05-07T07:20:21;101033.29;;;10.13;59.86
80248;BME280;69560;52.206;21.018;2023-05-07T07:22:47;101031.00;;;10.17;59.67
80248;BME280;69560;52.206;21.018;2023-05-07T07:25:14;101035.08;;;10.19;59.58
80248;BME280;69560;52.206;21.018;2023-05-07T07:27:41;101041.64;;;10.18;59.39
80248;BME280;69560;52.206;21.018;2023-05-07T07:30:08;101039.55;;;10.19;59.25
80248;BME280;69560;52.206;21.018;2023-05-07T07:32:35;101047.08;;;10.24;59.27
80248;BME280;69560;52.206;21.018;2023-05-07T07:35:01;101046.71;;;10.30;59.17
80248;BME280;69560;52.206;21.018;2023-05-07T07:37:28;101046.13;;;10.31;59.01
80248;BME280;69560;52.206;21.018;2023-05-07T07:39:56;101050.61;;;10.38;58.97
80248;BME280;69560;52.206;21.018;2023-05-07T07:42:23;101052.88;;;10.46;59.14
80248;BME280;69560;52.206;21.018;2023-05-07T07:44:49;101051.73;;;10.55;59.18
80248;BME280;69560;52.206;21.018;2023-05-07T07:47:16;101057.56;;;10.62;58.85
80248;BME280;69560;52.206;21.018;2023-05-07T07:49:43;101054.44;;;10.68;59.10
80248;BME280;69560;52.206;21.018;2023-05-07T07:52:09;101050.59;;;10.74;58.87
80248;BME280;69560;52.206;21.018;2023-05-07T07:54:36;101049.29;;;10.78;58.60
80248;BME280;69560;52.206;21.018;2023-05-07T07:57:05;101050.48;;;10.81;58.60
80248;BME280;69560;52.206;21.018;2023-05-07T07:59:32;101053.54;;;10.85;58.42
80248;BME280;69560;52.206;21.018;2023-05-07T08:01:58;101053.34;;;10.89;58.32
80248;BME280;69560;52.206;21.018;2023-05-07T08:04:25;101054.91;;;10.91;58.10
80248;BME280;69560;52.206;21.018;2023-05-07T08:06:51;101054.79;;;10.92;57.76
80248;BME280;69560;52.206;21.018;2023-05-07T08:09:20;101060.53;;;10.90;57.50
80248;BME280;69560;52.206;21.018;2023-05-07T08:11:47;101057.00;;;10.87;57.35
80248;BME280;69560;52.206;21.018;2023-05-07T08:14:13;101057.57;;;10.82;57.37
80248;BME280;69560;52.206;21.018;2023-05-07T08:16:42;101063.35;;;10.82;57.33
80248;BME280;69560;52.206;21.018;2023-05-07T08:19:08;101065.36;;;10.80;57.16
80248;BME280;69560;52.206;21.018;2023-05-07T08:21:39;101070.55;;;10.79;57.37
80248;BME280;69560;52.206;21.018;2023-05-07T08:24:06;101068.70;;;10.85;57.40
80248;BME280;69560;52.206;21.018;2023-05-07T08:26:32;101070.88;;;10.92;57.45
80248;BME280;69560;52.206;21.018;2023-05-07T08:28:59;101069.98;;;10.96;57.29
80248;BME280;69560;52.206;21.018;2023-05-07T08:31:28;101076.80;;;11.04;57.29
80248;BME280;69560;52.206;21.018;2023-05-07T08:33:54;101075.28;;;11.11;57.28
80248;BME280;69560;52.206;21.018;2023-05-07T08:36:21;101073.37;;;11.19;57.19
80248;BME280;69560;52.206;21.018;2023-05-07T08:38:48;101076.41;;;11.25;56.79
80248;BME280;69560;52.206;21.018;2023-05-07T08:41:15;101071.52;;;11.29;56.69
80248;BME280;69560;52.206;21.018;2023-05-07T08:43:47;101077.23;;;11.37;56.68
80248;BME280;69560;52.206;21.018;2023-05-07T08:46:19;101075.61;;;11.46;56.41
80248;BME280;69560;52.206;21.018;2023-05-07T08:48:50;101079.30;;;11.53;55.98
80248;BME280;69560;52.206;21.018;2023-05-07T08:51:20;101074.45;;;11.52;55.45
80248;BME280;69560;52.206;21.018;2023-05-07T08:53:48;101080.96;;;11.51;55.19
80248;BME280;69560;52.206;21.018;2023-05-07T08:56:16;101083.16;;;11.55;55.16
80248;BME280;69560;52.206;21.018;2023-05-07T08:58:44;101087.14;;;11.58;55.07
80248;BME280;69560;52.206;21.018;2023-05-07T09:01:15;101087.17;;;11.64;54.98
80248;BME280;69560;52.206;21.018;2023-05-07T09:03:44;101092.73;;;11.67;54.77
80248;BME280;69560;52.206;21.018;2023-05-07T09:06:12;101093.58;;;11.65;54.56
80248;BME280;69560;52.206;21.018;2023-05-07T09:08:38;101098.17;;;11.64;54.45
80248;BME280;69560;52.206;21.018;2023-05-07T09:11:05;101095.85;;;11.61;54.14
80248;BME280;69560;52.206;21.018;2023-05-07T09:13:31;101096.84;;;11.59;54.12
80248;BME280;69560;52.206;21.018;2023-05-07T09:16:10;101109.25;;;11.57;53.84
80248;BME280;69560;52.206;21.018;2023-05-07T09:18:41;101112.06;;;11.55;53.82
80248;BME280;69560;52.206;21.018;2023-05-07T09:21:15;101106.41;;;11.55;53.69
80248;BME280;69560;52.206;21.018;2023-05-07T09:23:42;101108.90;;;11.53;53.53
80248;BME280;69560;52.206;21.018;2023-05-07T09:26:09;101108.94;;;11.52;53.53
80248;BME280;69560;52.206;21.018;2023-05-07T09:28:41;101110.51;;;11.51;53.33
80248;BME280;69560;52.206;21.018;2023-05-07T09:31:09;101112.66;;;11.51;53.24
80248;BME280;69560;52.206;21.018;2023-05-07T09:33:37;101111.96;;;11.52;53.06
80248;BME280;69560;52.206;21.018;2023-05-07T09:36:05;101122.05;;;11.55;52.96
80248;BME280;69560;52.206;21.018;2023-05-07T09:38:33;101125.09;;;11.58;53.03
80248;BME280;69560;52.206;21.018;2023-05-07T09:41:05;101121.55;;;11.67;52.91
80248;BME280;69560;52.206;21.018;2023-05-07T09:43:36;101120.48;;;11.71;52.72
80248;BME280;69560;52.206;21.018;2023-05-07T09:46:08;101122.94;;;11.76;52.56
80248;BME280;69560;52.206;21.018;2023-05-07T09:48:39;101131.17;;;11.78;52.30
80248;BME280;69560;52.206;21.018;2023-05-07T09:53:41;101125.90;;;11.82;52.19
80248;BME280;69560;52.206;21.018;2023-05-07T09:56:09;101127.29;;;11.84;51.95
80248;BME280;69560;52.206;21.018;2023-05-07T09:58:39;101131.32;;;11.89;51.98
80248;BME280;69560;52.206;21.018;2023-05-07T10:01:10;101130.14;;;11.92;51.76
80248;BME280;69560;52.206;21.018;2023-05-07T10:03:37;101134.64;;;11.91;51.68
80248;BME280;69560;52.206;21.018;2023-05-07T10:06:08;101142.98;;;11.89;51.48
80248;BME280;69560;52.206;21.018;2023-05-07T10:08:37;101142.90;;;11.88;51.27
80248;BME280;69560;52.206;21.018;2023-05-07T10:11:04;101144.11;;;11.86;51.15
80248;BME280;69560;52.206;21.018;2023-05-07T10:13:35;101143.90;;;11.89;51.18
80248;BME280;69560;52.206;21.018;2023-05-07T10:16:04;101149.54;;;11.93;50.99
80248;BME280;69560;52.206;21.018;2023-05-07T10:18:32;101147.23;;;11.98;51.10
80248;BME280;69560;52.206;21.018;2023-05-07T10:21:05;101149.86;;;12.01;50.93
80248;BME280;69560;52.206;21.018;2023-05-07T10:23:33;101154.27;;;12.00;50.64
80248;BME280;69560;52.206;21.018;2023-05-07T10:26:05;101156.30;;;11.96;50.45
80248;BME280;69560;52.206;21.018;2023-05-07T10:28:39;101159.30;;;11.96;50.46
80248;BME280;69560;52.206;21.018;2023-05-07T10:33:55;101160.55;;;11.89;50.11
80248;BME280;69560;52.206;21.018;2023-05-07T10:36:23;101153.30;;;11.83;49.88
80248;BME280;69560;52.206;21.018;2023-05-07T10:38:51;101157.98;;;11.77;49.79
80248;BME280;69560;52.206;21.018;2023-05-07T10:41:18;101154.33;;;11.71;49.77
80248;BME280;69560;52.206;21.018;2023-05-07T10:43:45;101158.11;;;11.70;49.79
80248;BME280;69560;52.206;21.018;2023-05-07T10:46:19;101163.09;;;11.67;49.56
80248;BME280;69560;52.206;21.018;2023-05-07T10:51:32;101165.63;;;11.63;49.70
80248;BME280;69560;52.206;21.018;2023-05-07T10:56:38;101173.07;;;11.59;49.60
80248;BME280;69560;52.206;21.018;2023-05-07T11:01:52;101171.80;;;11.57;49.66
80248;BME280;69560;52.206;21.018;2023-05-07T11:04:20;101168.93;;;11.54;49.61
80248;BME280;69560;52.206;21.018;2023-05-07T11:15:11;101175.91;;;11.51;49.67
80248;BME280;69560;52.206;21.018;2023-05-07T11:17:58;101179.27;;;11.52;49.54
80248;BME280;69560;52.206;21.018;2023-05-07T11:26:05;101181.01;;;11.66;49.53
80248;BME280;69560;52.206;21.018;2023-05-07T11:28:37;101182.10;;;11.68;49.28
80248;BME280;69560;52.206;21.018;2023-05-07T11:31:04;101185.18;;;11.71;49.36
80248;BME280;69560;52.206;21.018;2023-05-07T11:33:31;101187.70;;;11.69;49.13
80248;BME280;69560;52.206;21.018;2023-05-07T11:35:59;101185.58;;;11.71;49.10
80248;BME280;69560;52.206;21.018;2023-05-07T11:38:26;101187.76;;;11.74;49.04
80248;BME280;69560;52.206;21.018;2023-05-07T11:40:56;101193.04;;;11.79;48.99
80248;BME280;69560;52.206;21.018;2023-05-07T11:43:23;101187.36;;;11.82;48.91
80248;BME280;69560;52.206;21.018;2023-05-07T11:45:50;101187.99;;;11.87;49.01
80248;BME280;69560;52.206;21.018;2023-05-07T11:48:16;101188.85;;;11.95;49.07
80248;BME280;69560;52.206;21.018;2023-05-07T11:50:51;101189.77;;;12.02;49.02
80248;BME280;69560;52.206;21.018;2023-05-07T11:53:19;101191.23;;;12.12;49.03
80248;BME280;69560;52.206;21.018;2023-05-07T11:55:52;101193.23;;;12.21;48.98
80248;BME280;69560;52.206;21.018;2023-05-07T11:58:23;101184.27;;;12.25;48.78
80248;BME280;69560;52.206;21.018;2023-05-07T12:00:52;101185.08;;;12.31;48.64
80248;BME280;69560;52.206;21.018;2023-05-07T12:03:19;101186.61;;;12.35;48.44
80248;BME280;69560;52.206;21.018;2023-05-07T12:05:46;101192.05;;;12.33;48.11
80248;BME280;69560;52.206;21.018;2023-05-07T12:08:17;101188.88;;;12.36;48.38
80248;BME280;69560;52.206;21.018;2023-05-07T12:10:45;101195.46;;;12.39;48.18
80248;BME280;69560;52.206;21.018;2023-05-07T12:13:19;101195.70;;;12.36;47.82
80248;BME280;69560;52.206;21.018;2023-05-07T12:15:46;101197.63;;;12.34;47.93
80248;BME280;69560;52.206;21.018;2023-05-07T12:18:13;101199.19;;;12.33;47.78
80248;BME280;69560;52.206;21.018;2023-05-07T12:20:40;101202.58;;;12.32;47.75
80248;BME280;69560;52.206;21.018;2023-05-07T12:23:06;101201.71;;;12.32;47.74
80248;BME280;69560;52.206;21.018;2023-05-07T12:25:38;101204.47;;;12.31;47.78
80248;BME280;69560;52.206;21.018;2023-05-07T12:28:07;101208.71;;;12.35;47.86
80248;BME280;69560;52.206;21.018;2023-05-07T12:30:38;101207.67;;;12.41;47.86
80248;BME280;69560;52.206;21.018;2023-05-07T12:33:05;101209.02;;;12.44;47.76
80248;BME280;69560;52.206;21.018;2023-05-07T12:35:36;101207.18;;;12.43;47.52
80248;BME280;69560;52.206;21.018;2023-05-07T12:38:07;101208.83;;;12.42;47.39
80248;BME280;69560;52.206;21.018;2023-05-07T12:40:37;101208.30;;;12.43;47.26
80248;BME280;69560;52.206;21.018;2023-05-07T12:43:04;101210.16;;;12.44;47.25
80248;BME280;69560;52.206;21.018;2023-05-07T12:45:37;101210.19;;;12.45;47.36
80248;BME280;69560;52.206;21.018;2023-05-07T12:48:05;101210.27;;;12.48;47.23
80248;BME280;69560;52.206;21.018;2023-05-07T12:50:32;101216.15;;;12.51;47.31
80248;BME280;69560;52.206;21.018;2023-05-07T12:52:59;101215.67;;;12.57;47.27
80248;BME280;69560;52.206;21.018;2023-05-07T12:55:28;101211.63;;;12.66;47.26
80248;BME280;69560;52.206;21.018;2023-05-07T12:57:55;101213.11;;;12.78;47.34
80248;BME280;69560;52.206;21.018;2023-05-07T13:00:36;101213.70;;;12.94;47.32
80248;BME280;69560;52.206;21.018;2023-05-07T13:03:03;101211.02;;;13.01;46.68
80248;BME280;69560;52.206;21.018;2023-05-07T13:05:31;101212.08;;;13.05;46.80
80248;BME280;69560;52.206;21.018;2023-05-07T13:07:58;101211.95;;;13.10;46.40
80248;BME280;69560;52.206;21.018;2023-05-07T13:10:25;101210.45;;;13.14;46.32
80248;BME280;69560;52.206;21.018;2023-05-07T13:12:51;101208.86;;;13.20;46.29
80248;BME280;69560;52.206;21.018;2023-05-07T13:15:19;101212.23;;;13.25;46.08
80248;BME280;69560;52.206;21.018;2023-05-07T13:17:46;101212.56;;;13.26;45.88